createdAt,value
2022-08-11T00:00:10.704Z,20.43
2022-08-11T00:01:11.003Z,20.39
2022-08-11T00:02:15.314Z,20.43
2022-08-11T00:03:11.607Z,20.50
2022-08-11T00:04:11.839Z,20.56
2022-08-11T00:05:12.130Z,20.51
2022-08-11T00:06:12.424Z,20.47
2022-08-11T00:07:12.709Z,20.43
2022-08-11T00:08:13.034Z,20.46
2022-08-11T00:09:13.330Z,20.47
2022-08-11T00:10:13.618Z,20.50
2022-08-11T00:11:13.882Z,20.49
2022-08-11T00:12:14.161Z,20.43
2022-08-11T00:13:14.963Z,20.38
2022-08-11T00:14:14.782Z,20.35
2022-08-11T00:15:15.072Z,20.33
2022-08-11T00:16:16.891Z,20.30
2022-08-11T00:17:15.677Z,20.30
2022-08-11T00:18:15.967Z,20.25
2022-08-11T00:19:16.266Z,20.16
2022-08-11T00:20:17.572Z,20.09
2022-08-11T00:21:16.825Z,20.10
2022-08-11T00:22:17.145Z,20.05
2022-08-11T00:23:18.462Z,20.03
2022-08-11T00:24:17.685Z,20.00
2022-08-11T00:25:18.028Z,20.02
2022-08-11T00:26:18.315Z,20.03
2022-08-11T00:27:18.593Z,20.06
2022-08-11T00:28:18.877Z,20.05
2022-08-11T00:29:19.196Z,20.02
2022-08-11T00:30:19.495Z,19.98
2022-08-11T00:31:19.787Z,19.93
2022-08-11T00:32:20.056Z,19.91
2022-08-11T00:33:20.344Z,19.90
2022-08-11T00:34:21.666Z,19.90
2022-08-11T00:35:53.664Z,19.91
2022-08-11T00:36:25.615Z,19.88
2022-08-11T00:37:21.422Z,19.91
2022-08-11T00:38:21.715Z,19.91
2022-08-11T00:39:28.953Z,19.93
2022-08-11T00:40:23.356Z,20.00
2022-08-11T00:41:22.616Z,20.06
2022-08-11T00:42:22.945Z,20.03
2022-08-11T00:43:23.235Z,20.02
2022-08-11T00:44:23.507Z,20.02
2022-08-11T00:45:23.785Z,20.00
2022-08-11T00:46:24.094Z,20.00
2022-08-11T00:47:24.366Z,20.00
2022-08-11T00:48:24.651Z,20.02
2022-08-11T00:49:24.914Z,20.02
2022-08-11T00:50:25.207Z,19.98
2022-08-11T00:51:25.516Z,19.93
2022-08-11T00:52:25.825Z,19.91
2022-08-11T02:57:13.825Z,18.68
2022-08-11T02:58:14.152Z,18.82
2022-08-11T02:59:14.426Z,18.82
2022-08-11T03:00:14.723Z,18.82
2022-08-11T03:01:15.051Z,18.74
2022-08-11T03:02:15.255Z,18.68
2022-08-11T03:03:15.554Z,18.62
2022-08-11T03:04:15.907Z,18.59
2022-08-11T03:05:16.197Z,18.61
2022-08-11T03:06:16.464Z,18.65
2022-08-11T03:07:28.507Z,18.64
2022-08-11T03:08:18.064Z,18.67
2022-08-11T03:09:17.294Z,18.65
2022-08-11T03:10:17.587Z,18.72
2022-08-11T03:11:17.873Z,18.76
2022-08-11T03:12:18.205Z,18.86
2022-08-11T03:13:19.458Z,18.92
2022-08-11T03:14:18.810Z,18.90
2022-08-11T03:15:19.105Z,18.90
2022-08-11T03:16:19.415Z,18.87
2022-08-11T03:17:19.739Z,18.90
2022-08-11T03:18:20.054Z,18.90
2022-08-11T03:19:20.360Z,18.91
2022-08-11T03:20:20.664Z,18.92
2022-08-11T03:21:20.974Z,18.91
2022-08-11T03:22:21.299Z,18.90
2022-08-11T03:23:21.611Z,18.86
2022-08-11T03:24:21.925Z,18.82
2022-08-11T03:25:22.218Z,18.80
2022-08-11T03:26:22.480Z,18.77
2022-08-11T03:27:22.795Z,18.79
2022-08-11T03:28:23.118Z,18.76
2022-08-11T03:29:25.146Z,18.80
2022-08-11T03:30:23.726Z,18.76
2022-08-11T03:31:24.018Z,18.83
2022-08-11T03:32:24.304Z,18.91
2022-08-11T03:33:24.615Z,18.82
2022-08-11T03:34:25.400Z,18.74
2022-08-11T03:35:25.147Z,18.76
2022-08-11T03:36:25.436Z,18.77
2022-08-11T03:37:25.715Z,18.74
2022-08-11T03:38:30.440Z,18.74
2022-08-11T03:39:26.324Z,18.74
2022-08-11T03:40:26.549Z,18.74
2022-08-11T03:42:02.464Z,18.79
2022-08-11T03:42:28.287Z,18.74
2022-08-11T03:43:27.451Z,18.79
2022-08-11T03:44:27.740Z,18.83
2022-08-11T03:45:28.037Z,18.83
2022-08-11T03:46:28.315Z,18.87
2022-08-11T03:47:28.655Z,18.84
2022-08-11T03:48:28.973Z,18.77
2022-08-11T03:49:29.272Z,18.72
2022-08-11T03:50:29.535Z,18.59
2022-08-11T03:51:44.936Z,18.59
2022-08-11T03:52:31.130Z,18.54
2022-08-11T03:53:30.366Z,18.49
2022-08-11T03:54:30.669Z,18.42
2022-08-11T03:55:30.957Z,18.43
2022-08-11T03:56:31.245Z,18.40
2022-08-11T03:57:31.580Z,18.42
2022-08-11T03:58:31.857Z,18.52
2022-08-11T03:59:32.126Z,18.49
2022-08-11T04:00:32.441Z,18.47
2022-08-11T04:01:32.783Z,18.46
2022-08-11T04:02:33.099Z,18.43
2022-08-11T04:03:33.305Z,18.39
2022-08-11T04:04:33.585Z,18.39
2022-08-11T04:05:33.897Z,18.40
2022-08-11T04:06:34.200Z,18.47
2022-08-11T04:07:34.545Z,18.49
2022-08-11T04:08:34.735Z,18.57
2022-08-11T04:09:35.037Z,18.67
2022-08-11T04:10:35.346Z,18.73
2022-08-11T04:11:35.668Z,18.74
2022-08-11T04:12:37.104Z,18.76
2022-08-11T04:13:36.195Z,18.79
2022-08-11T04:14:36.494Z,18.80
2022-08-11T04:15:36.812Z,18.80
2022-08-11T04:16:37.126Z,18.82
2022-08-11T04:17:37.421Z,18.82
2022-08-11T04:18:37.718Z,18.83
2022-08-11T04:19:37.998Z,18.84
2022-08-11T04:20:38.346Z,18.80
2022-08-11T04:21:38.636Z,18.77
2022-08-11T04:22:39.181Z,18.74
2022-08-11T04:24:33.071Z,18.70
2022-08-11T04:24:40.474Z,18.65
2022-08-11T04:25:57.604Z,18.65
2022-08-11T04:26:41.039Z,18.65
2022-08-11T04:27:40.299Z,18.70
2022-08-11T04:28:43.106Z,18.68
2022-08-11T04:30:00.924Z,18.73
2022-08-11T04:30:42.122Z,18.70
2022-08-11T04:31:44.244Z,18.70
2022-08-11T04:32:42.786Z,18.72
2022-08-11T04:33:42.042Z,18.65
2022-08-11T04:34:42.331Z,18.59
2022-08-11T04:35:44.937Z,18.54
2022-08-11T04:36:43.945Z,18.49
2022-08-11T04:37:43.179Z,18.44
2022-08-11T04:38:43.457Z,18.42
2022-08-11T04:39:44.646Z,18.36
2022-08-11T04:40:44.064Z,18.24
2022-08-11T04:41:44.363Z,18.24
2022-08-11T04:42:44.637Z,18.19
2022-08-11T04:44:05.264Z,18.28
2022-08-11T04:44:46.268Z,18.34
2022-08-11T04:45:45.527Z,18.39
2022-08-11T04:46:45.846Z,18.36
2022-08-11T04:48:03.498Z,18.46
2022-08-11T04:48:47.421Z,18.43
2022-08-11T04:49:46.772Z,18.39
2022-08-11T04:51:08.837Z,18.42
2022-08-11T04:51:48.392Z,18.44
2022-08-11T04:52:47.759Z,18.52
2022-08-11T04:53:48.042Z,18.52
2022-08-11T04:54:48.325Z,18.52
2022-08-11T04:55:48.628Z,18.59
2022-08-11T04:56:48.957Z,18.62
2022-08-11T04:57:49.293Z,18.62
2022-08-11T04:58:49.621Z,18.62
2022-08-11T04:59:49.925Z,18.59
2022-08-11T05:00:50.223Z,18.58
2022-08-11T05:01:50.568Z,18.54
2022-08-11T05:02:50.856Z,18.55
2022-08-11T05:03:51.145Z,18.49
2022-08-11T05:04:51.432Z,18.43
2022-08-11T05:05:56.253Z,18.50
2022-08-11T05:06:53.007Z,18.49
2022-08-11T05:07:52.244Z,18.52
2022-08-11T05:08:52.575Z,18.54
2022-08-11T05:09:52.896Z,18.59
2022-08-11T05:10:53.188Z,18.64
2022-08-11T05:11:57.882Z,18.68
2022-08-11T05:12:54.809Z,18.72
2022-08-11T05:13:54.039Z,18.76
2022-08-11T05:14:54.332Z,18.74
2022-08-11T05:15:54.640Z,18.79
2022-08-11T05:16:58.810Z,18.82
2022-08-11T05:17:55.157Z,18.83
2022-08-11T05:18:55.475Z,18.84
2022-08-11T05:19:55.779Z,18.83
2022-08-11T05:20:56.078Z,18.77
2022-08-11T05:21:57.369Z,18.72
2022-08-11T05:22:56.675Z,18.70
2022-08-11T05:24:00.794Z,18.73
2022-08-11T05:24:57.272Z,18.74
2022-08-11T05:26:42.847Z,18.79
2022-08-11T05:26:58.907Z,18.79
2022-08-11T05:27:58.329Z,18.80
2022-08-11T05:28:58.406Z,18.83
2022-08-11T05:29:58.716Z,18.86
2022-08-11T05:30:59.019Z,18.86
2022-08-11T05:31:59.312Z,18.90
2022-08-11T05:33:02.219Z,18.90
2022-08-11T05:33:59.899Z,18.94
2022-08-11T05:35:00.233Z,18.84
2022-08-11T05:36:03.154Z,18.80
2022-08-11T05:37:23.930Z,18.73
2022-08-11T05:38:02.075Z,18.68
2022-08-11T05:39:01.310Z,18.65
2022-08-11T05:40:01.743Z,18.68
2022-08-11T05:41:01.927Z,18.79
2022-08-11T05:42:02.218Z,18.79
2022-08-11T05:43:02.550Z,18.79
2022-08-11T05:44:20.214Z,18.76
2022-08-11T05:45:04.156Z,18.80
2022-08-11T05:46:07.034Z,18.76
2022-08-11T05:47:03.748Z,18.80
2022-08-11T05:48:04.035Z,18.83
2022-08-11T05:49:04.366Z,18.92
2022-08-11T05:50:04.561Z,18.95
2022-08-11T05:51:10.310Z,19.08
2022-08-11T05:52:12.694Z,19.10
2022-08-11T05:53:08.920Z,19.14
2022-08-11T05:54:05.654Z,19.20
2022-08-11T05:55:07.424Z,19.20
2022-08-11T05:56:06.250Z,19.23
2022-08-11T05:57:06.594Z,19.20
2022-08-11T05:58:06.899Z,19.24
2022-08-11T05:59:07.182Z,19.23
2022-08-11T06:00:07.465Z,19.23
2022-08-11T06:01:07.883Z,19.31
2022-08-11T06:02:08.058Z,19.38
2022-08-11T06:03:08.365Z,19.42
2022-08-11T06:04:08.653Z,19.50
2022-08-11T06:05:08.948Z,19.54
2022-08-11T06:06:09.216Z,19.58
2022-08-11T06:07:09.531Z,19.60
2022-08-11T06:08:09.812Z,19.60
2022-08-11T06:09:10.086Z,19.63
2022-08-11T06:10:10.381Z,19.58
2022-08-11T06:11:10.699Z,19.65
2022-08-11T06:12:10.987Z,19.68
2022-08-11T06:13:11.256Z,19.75
2022-08-11T06:14:11.523Z,19.72
2022-08-11T06:15:11.827Z,19.73
2022-08-11T06:16:12.145Z,19.78
2022-08-11T06:17:12.450Z,19.79
2022-08-11T06:18:12.756Z,19.88
2022-08-11T06:19:13.066Z,19.93
2022-08-11T06:20:13.376Z,19.98
2022-08-11T06:21:13.679Z,20.00
2022-08-11T06:22:13.958Z,19.98
2022-08-11T06:23:14.271Z,19.97
2022-08-11T06:24:14.599Z,20.03
2022-08-11T06:25:19.323Z,20.03
2022-08-11T06:26:15.201Z,20.06
2022-08-11T06:27:15.507Z,20.08
2022-08-11T06:28:20.357Z,20.12
2022-08-11T06:29:17.119Z,20.15
2022-08-11T06:30:16.396Z,20.18
2022-08-11T06:31:16.962Z,20.21
2022-08-11T06:32:16.933Z,20.24
2022-08-11T06:33:17.223Z,20.24
2022-08-11T06:34:27.508Z,20.28
2022-08-11T06:35:18.849Z,20.30
2022-08-11T06:36:18.086Z,20.31
2022-08-11T06:37:18.381Z,20.33
2022-08-11T06:38:18.694Z,20.33
2022-08-11T06:39:19.031Z,20.34
2022-08-11T06:40:19.230Z,20.34
2022-08-11T06:41:19.533Z,20.31
2022-08-11T06:42:19.817Z,20.34
2022-08-11T06:43:20.141Z,20.38
2022-08-11T06:44:20.434Z,20.41
2022-08-11T06:45:20.733Z,20.43
2022-08-11T06:46:28.217Z,20.51
2022-08-11T06:47:22.333Z,20.51
2022-08-11T06:48:21.599Z,20.50
2022-08-11T06:49:21.937Z,20.43
2022-08-11T06:50:22.241Z,20.43
2022-08-11T06:51:22.531Z,20.42
2022-08-11T06:52:34.332Z,20.43
2022-08-11T06:53:24.129Z,20.41
2022-08-11T06:54:23.379Z,20.35
2022-08-11T06:55:55.777Z,20.33
2022-08-11T06:56:25.017Z,20.28
2022-08-11T06:57:31.515Z,20.27
2022-08-11T06:58:25.528Z,20.23
2022-08-11T06:59:24.782Z,20.18
2022-08-11T07:00:25.101Z,20.18
2022-08-11T07:01:25.462Z,20.20
2022-08-11T07:02:30.535Z,20.18
2022-08-11T07:03:27.040Z,20.18
2022-08-11T07:04:26.297Z,20.24
2022-08-11T07:05:26.588Z,20.25
2022-08-11T07:06:26.886Z,20.25
2022-08-11T07:07:28.199Z,20.28
2022-08-11T07:08:33.858Z,20.27
2022-08-11T07:09:28.728Z,20.30
2022-08-11T07:10:27.950Z,20.34
2022-08-11T07:11:28.229Z,20.39
2022-08-11T07:12:28.692Z,20.47
2022-08-11T07:13:44.461Z,20.54
2022-08-11T07:14:33.869Z,20.61
2022-08-11T07:16:11.673Z,20.66
2022-08-11T07:16:31.157Z,20.72
2022-08-11T07:17:30.075Z,20.76
2022-08-11T07:18:30.581Z,20.81
2022-08-11T07:19:30.737Z,20.87
2022-08-11T07:20:31.082Z,20.86
2022-08-11T07:21:42.746Z,20.87
2022-08-11T07:22:32.692Z,20.90
2022-08-11T07:23:31.876Z,20.93
2022-08-11T07:24:34.473Z,20.96
2022-08-11T07:25:33.361Z,21.02
2022-08-11T07:26:32.597Z,21.02
2022-08-11T07:27:35.607Z,21.06
2022-08-11T07:28:33.203Z,21.09
2022-08-11T07:29:33.381Z,21.08
2022-08-11T07:30:33.660Z,21.09
2022-08-11T07:31:34.004Z,21.11
2022-08-11T07:32:34.312Z,21.16
2022-08-11T07:34:07.326Z,21.19
2022-08-11T07:34:35.919Z,21.17
2022-08-11T07:35:35.202Z,21.17
2022-08-11T07:36:35.538Z,21.19
2022-08-11T07:37:35.840Z,21.23
2022-08-11T07:38:36.146Z,21.26
2022-08-11T07:39:36.502Z,21.27
2022-08-11T07:40:36.773Z,21.30
2022-08-11T07:41:37.100Z,21.34
2022-08-11T07:42:37.533Z,21.36
2022-08-11T07:43:37.712Z,21.42
2022-08-11T07:44:38.042Z,21.48
2022-08-11T07:45:38.314Z,21.50
2022-08-11T07:46:38.623Z,21.45
2022-08-11T07:47:38.966Z,21.45
2022-08-11T07:48:39.259Z,21.50
2022-08-11T07:49:39.575Z,21.56
2022-08-11T07:50:39.861Z,21.57
2022-08-11T07:51:40.136Z,21.60
2022-08-11T07:52:40.773Z,21.63
2022-08-11T07:53:41.732Z,21.69
2022-08-11T07:54:41.922Z,21.72
2022-08-11T07:55:51.837Z,21.78
2022-08-11T07:57:07.177Z,21.79
2022-08-11T07:58:15.017Z,21.81
2022-08-11T07:58:45.588Z,21.81
2022-08-11T08:00:04.323Z,21.82
2022-08-11T08:00:43.650Z,21.82
2022-08-11T08:01:43.133Z,21.85
2022-08-11T08:02:43.216Z,21.91
2022-08-11T08:03:53.998Z,21.94
2022-08-11T08:04:47.377Z,21.98
2022-08-11T08:05:44.124Z,21.97
2022-08-11T08:06:44.412Z,21.98
2022-08-11T08:07:44.722Z,21.98
2022-08-11T08:08:44.984Z,21.99
2022-08-11T08:09:45.262Z,22.07
2022-08-11T08:10:45.567Z,22.09
2022-08-11T08:11:45.860Z,22.13
2022-08-11T08:12:46.189Z,22.16
2022-08-11T08:13:46.486Z,22.17
2022-08-11T08:14:46.750Z,22.23
2022-08-11T08:15:47.045Z,22.22
2022-08-11T08:16:47.367Z,22.23
2022-08-11T08:18:10.098Z,22.29
2022-08-11T08:18:49.033Z,22.38
2022-08-11T08:19:48.259Z,22.39
2022-08-11T08:20:48.557Z,22.43
2022-08-11T08:21:48.857Z,22.46
2022-08-11T08:22:49.580Z,22.47
2022-08-11T08:23:54.025Z,22.52
2022-08-11T08:24:50.811Z,22.54
2022-08-11T08:25:50.045Z,22.56
2022-08-11T08:26:51.878Z,22.54
2022-08-11T08:27:50.663Z,22.54
2022-08-11T08:28:50.955Z,22.57
2022-08-11T08:29:51.214Z,22.57
2022-08-11T08:30:51.483Z,22.64
2022-08-11T08:31:51.785Z,22.68
2022-08-11T08:32:52.100Z,22.67
2022-08-11T08:33:52.423Z,22.68
2022-08-11T08:34:52.722Z,22.69
2022-08-11T08:35:55.634Z,22.74
2022-08-11T08:36:53.243Z,22.77
2022-08-11T08:37:53.617Z,22.84
2022-08-11T08:38:53.826Z,22.92
2022-08-11T08:39:54.184Z,22.99
2022-08-11T08:40:56.283Z,23.01
2022-08-11T08:41:54.766Z,23.09
2022-08-11T08:42:55.055Z,23.12
2022-08-11T08:43:56.412Z,23.17
2022-08-11T08:44:55.643Z,23.24
2022-08-11T08:45:55.946Z,23.27
2022-08-11T08:46:56.244Z,23.29
2022-08-11T08:47:56.507Z,23.34
2022-08-11T08:48:56.818Z,23.40
2022-08-11T08:49:57.121Z,23.39
2022-08-11T08:50:57.410Z,23.35
2022-08-11T08:52:01.927Z,23.43
2022-08-11T08:52:58.983Z,23.46
2022-08-11T08:53:58.448Z,23.45
2022-08-11T08:54:58.446Z,23.38
2022-08-11T08:55:58.709Z,23.34
2022-08-11T08:56:58.982Z,23.45
2022-08-11T08:57:59.261Z,23.55
2022-08-11T08:58:59.559Z,23.64
2022-08-11T08:59:59.858Z,23.67
2022-08-11T09:01:00.242Z,23.76
2022-08-11T09:02:00.426Z,23.77
2022-08-11T09:03:17.287Z,23.75
2022-08-11T09:04:10.562Z,23.75
2022-08-11T09:05:02.185Z,23.77
2022-08-11T09:06:01.417Z,23.80
2022-08-11T09:07:01.711Z,23.86
2022-08-11T09:08:02.040Z,23.94
2022-08-11T09:09:02.337Z,24.00
2022-08-11T09:10:02.667Z,24.01
2022-08-11T09:11:02.962Z,24.00
2022-08-11T09:12:03.228Z,24.04
2022-08-11T09:13:03.533Z,24.12
2022-08-11T09:14:06.689Z,24.20
2022-08-11T09:15:04.100Z,24.26
2022-08-11T09:16:04.400Z,24.27
2022-08-11T09:17:04.692Z,24.24
2022-08-11T09:18:05.015Z,24.37
2022-08-11T09:19:05.353Z,24.52
2022-08-11T09:20:05.794Z,24.52
2022-08-11T09:21:05.900Z,24.60
2022-08-11T09:22:06.195Z,24.68
2022-08-11T09:24:14.752Z,24.98
2022-08-11T09:25:07.988Z,25.00
2022-08-11T09:26:07.259Z,25.02
2022-08-11T09:27:07.549Z,25.05
2022-08-11T09:28:07.848Z,25.07
2022-08-11T09:29:08.243Z,25.13
2022-08-11T09:30:08.413Z,25.28
2022-08-11T09:31:08.684Z,25.38
2022-08-11T09:32:09.064Z,25.22
2022-08-11T09:33:09.254Z,25.16
2022-08-11T09:34:09.558Z,25.25
2022-08-11T09:35:09.823Z,25.35
2022-08-11T09:36:10.128Z,25.35
2022-08-11T09:37:10.425Z,25.39
2022-08-11T09:38:10.739Z,25.39
2022-08-11T09:39:11.099Z,25.46
2022-08-11T09:40:11.300Z,25.43
2022-08-11T09:41:11.588Z,25.38
2022-08-11T09:42:16.551Z,25.46
2022-08-11T09:43:13.240Z,25.38
2022-08-11T09:44:12.495Z,25.19
2022-08-11T09:45:12.789Z,25.01
2022-08-11T09:46:13.127Z,24.73
2022-08-11T09:47:13.451Z,24.67
2022-08-11T09:48:13.775Z,24.68
2022-08-11T09:49:14.060Z,24.79
2022-08-11T09:50:14.323Z,24.91
2022-08-11T09:51:14.614Z,25.01
2022-08-11T09:52:14.914Z,25.09
2022-08-11T09:53:36.218Z,25.09
2022-08-11T09:54:16.529Z,24.94
2022-08-11T09:55:15.770Z,24.75
2022-08-11T09:56:16.037Z,24.69
2022-08-11T09:57:16.310Z,24.80
2022-08-11T09:58:41.621Z,24.85
2022-08-11T09:59:17.895Z,24.80
2022-08-11T10:00:17.131Z,24.68
2022-08-11T10:01:17.486Z,24.35
2022-08-11T10:02:17.677Z,24.08
2022-08-11T10:03:18.037Z,24.17
2022-08-11T10:04:18.190Z,24.41
2022-08-11T10:05:18.492Z,24.68
2022-08-11T10:06:18.776Z,24.95
2022-08-11T10:07:19.085Z,25.10
2022-08-11T10:08:19.379Z,25.20
2022-08-11T10:09:19.672Z,25.34
2022-08-11T10:10:19.956Z,25.44
2022-08-11T10:11:20.234Z,25.54
2022-08-11T10:12:20.531Z,25.62
2022-08-11T10:14:10.067Z,25.65
2022-08-11T10:14:32.760Z,25.37
2022-08-11T10:15:22.481Z,25.16
2022-08-11T10:16:21.705Z,24.98
2022-08-11T10:17:22.020Z,25.09
2022-08-11T10:18:22.318Z,25.22
2022-08-11T10:19:22.628Z,25.32
2022-08-11T10:20:25.849Z,25.62
2022-08-11T10:21:23.192Z,25.82
2022-08-11T10:22:23.502Z,26.04
2022-08-11T10:23:23.785Z,26.18
2022-08-11T10:24:24.094Z,26.22
2022-08-11T10:25:24.387Z,26.37
2022-08-11T10:26:24.686Z,25.99
2022-08-11T10:27:28.983Z,26.04
2022-08-11T10:28:33.806Z,25.93
2022-08-11T10:29:26.626Z,25.79
2022-08-11T10:30:26.833Z,25.71
2022-08-11T10:31:27.533Z,25.90
2022-08-11T10:32:29.541Z,25.91
2022-08-11T10:33:36.596Z,26.01
2022-08-11T10:34:29.203Z,26.15
2022-08-11T10:35:27.285Z,26.31
2022-08-11T10:36:27.597Z,26.21
2022-08-11T10:38:06.183Z,25.99
2022-08-11T10:38:29.177Z,25.97
2022-08-11T10:39:28.507Z,26.08
2022-08-11T10:40:28.722Z,26.40
2022-08-11T10:41:29.049Z,26.49
2022-08-11T10:42:47.668Z,26.65
2022-08-11T10:44:02.568Z,26.61
2022-08-11T10:44:30.856Z,26.74
2022-08-11T10:45:30.078Z,26.27
2022-08-11T10:46:30.769Z,25.94
2022-08-11T10:47:30.619Z,25.68
2022-08-11T10:48:30.936Z,25.16
2022-08-11T10:49:31.220Z,24.97
2022-08-11T10:50:31.518Z,25.09
2022-08-11T10:51:50.747Z,25.44
2022-08-11T10:52:33.114Z,25.75
2022-08-11T10:53:32.405Z,25.62
2022-08-11T10:54:32.691Z,25.16
2022-08-11T10:55:32.994Z,25.34
2022-08-11T10:56:34.060Z,25.05
2022-08-11T10:57:33.782Z,24.94
2022-08-11T10:58:33.944Z,24.69
2022-08-11T10:59:34.238Z,24.90
2022-08-11T11:00:34.520Z,25.13
2022-08-11T11:01:34.834Z,25.25
2022-08-11T11:02:35.051Z,25.56
2022-08-11T11:03:35.380Z,25.77
2022-08-11T11:04:35.709Z,25.67
2022-08-11T11:05:36.007Z,25.49
2022-08-11T11:06:36.300Z,25.46
2022-08-11T11:07:36.594Z,25.52
2022-08-11T11:08:37.950Z,25.69
2022-08-11T11:09:37.201Z,25.83
2022-08-11T11:10:37.505Z,25.99
2022-08-11T11:11:37.794Z,26.20
2022-08-11T11:12:38.329Z,26.24
2022-08-11T11:13:38.441Z,25.69
2022-08-11T11:14:46.300Z,25.44
2022-08-11T11:15:39.960Z,25.39
2022-08-11T11:16:39.301Z,25.25
2022-08-11T11:17:39.575Z,25.42
2022-08-11T11:18:39.888Z,25.38
2022-08-11T11:19:40.177Z,25.43
2022-08-11T11:20:45.059Z,25.42
2022-08-11T11:21:42.427Z,25.54
2022-08-11T11:22:41.085Z,25.67
2022-08-11T11:23:41.205Z,25.62
2022-08-11T11:24:41.544Z,25.57
2022-08-11T11:25:41.827Z,25.79
2022-08-11T11:26:42.162Z,25.52
2022-08-11T11:27:46.318Z,25.74
2022-08-11T11:28:42.732Z,26.05
2022-08-11T11:29:43.032Z,26.02
2022-08-11T11:30:43.356Z,26.11
2022-08-11T11:31:43.674Z,25.99
2022-08-11T11:32:49.067Z,25.99
2022-08-11T11:34:06.879Z,25.90
2022-08-11T11:34:52.827Z,25.84
2022-08-11T11:35:45.855Z,25.72
2022-08-11T11:36:45.096Z,25.77
2022-08-11T11:38:04.459Z,25.84
2022-08-11T11:38:46.675Z,25.80
2022-08-11T11:39:46.005Z,25.89
2022-08-11T11:40:46.195Z,26.04
2022-08-11T11:41:46.486Z,26.11
2022-08-11T11:42:46.763Z,26.29
2022-08-11T11:43:47.065Z,26.42
2022-08-11T11:44:47.378Z,26.42
2022-08-11T11:45:47.672Z,26.04
2022-08-11T11:46:47.966Z,25.91
2022-08-11T11:47:48.244Z,26.08
2022-08-11T11:48:48.554Z,26.21
2022-08-11T11:49:48.857Z,26.29
2022-08-11T11:50:49.175Z,26.49
2022-08-11T11:51:50.210Z,26.65
2022-08-11T11:52:49.703Z,26.83
2022-08-11T11:53:50.015Z,26.89
2022-08-11T11:54:50.490Z,27.05
2022-08-11T11:55:50.633Z,27.21
2022-08-11T11:56:50.921Z,27.35
2022-08-11T11:57:59.016Z,27.47
2022-08-11T11:58:54.549Z,27.42
2022-08-11T11:59:51.878Z,27.16
2022-08-11T12:00:52.170Z,26.98
2022-08-11T12:01:52.817Z,26.92
2022-08-11T12:02:52.837Z,27.05
2022-08-11T12:03:53.071Z,27.05
2022-08-11T12:04:53.360Z,27.04
2022-08-11T12:05:53.637Z,27.06
2022-08-11T12:06:53.931Z,26.87
2022-08-11T12:07:58.724Z,26.83
2022-08-11T12:08:55.568Z,26.72
2022-08-11T12:09:54.808Z,26.69
2022-08-11T12:10:55.090Z,26.87
2022-08-11T12:11:55.389Z,27.05
2022-08-11T12:12:55.667Z,27.11
2022-08-11T12:13:55.986Z,27.17
2022-08-11T12:14:56.353Z,27.14
2022-08-11T12:16:33.465Z,27.26
2022-08-11T12:16:57.819Z,27.29
2022-08-11T12:17:57.061Z,27.47
2022-08-11T12:18:57.388Z,27.67
2022-08-11T12:19:57.713Z,27.94
2022-08-11T12:20:58.002Z,27.95
2022-08-11T12:21:59.457Z,27.39
2022-08-11T12:22:58.568Z,27.21
2022-08-11T12:24:03.689Z,27.13
2022-08-11T12:25:00.152Z,26.95
2022-08-11T12:26:23.426Z,27.04
2022-08-11T12:27:15.228Z,27.31
2022-08-11T12:28:00.907Z,27.31
2022-08-11T12:29:00.260Z,27.23
2022-08-11T12:30:00.539Z,27.41
2022-08-11T12:31:00.835Z,27.42
2022-08-11T12:32:01.170Z,27.28
2022-08-11T12:33:01.463Z,27.13
2022-08-11T12:34:01.746Z,27.16
2022-08-11T12:35:02.039Z,27.42
2022-08-11T12:36:02.374Z,27.28
2022-08-11T12:37:02.673Z,27.16
2022-08-11T12:38:10.829Z,27.16
2022-08-11T12:39:11.375Z,27.16
2022-08-11T12:40:16.552Z,27.24
2022-08-11T12:41:15.745Z,27.38
2022-08-11T12:42:05.114Z,27.42
2022-08-11T12:43:08.294Z,27.42
2022-08-11T12:44:05.649Z,27.42
2022-08-11T12:45:04.900Z,27.36
2022-08-11T12:46:06.172Z,27.29
2022-08-11T12:47:05.511Z,27.42
2022-08-11T12:48:57.497Z,27.59
2022-08-11T12:49:07.103Z,27.54
2022-08-11T12:50:06.363Z,27.36
2022-08-11T12:51:07.639Z,27.14
2022-08-11T12:52:13.327Z,27.06
2022-08-11T12:53:08.281Z,26.81
2022-08-11T12:54:07.503Z,26.67
2022-08-11T12:55:12.967Z,26.64
2022-08-11T12:56:09.101Z,26.62
2022-08-11T12:57:08.477Z,26.61
2022-08-11T12:58:08.776Z,26.67
2022-08-11T12:59:09.074Z,26.67
2022-08-11T13:00:09.363Z,26.55
2022-08-11T13:01:12.757Z,26.47
2022-08-11T13:02:09.960Z,26.43
2022-08-11T13:03:10.253Z,26.55
2022-08-11T13:04:10.597Z,26.73
2022-08-11T13:05:10.895Z,26.80
2022-08-11T13:06:11.186Z,26.94
2022-08-11T13:07:11.480Z,26.96
2022-08-11T13:08:11.736Z,27.04
2022-08-11T13:09:12.034Z,27.17
2022-08-11T13:10:16.844Z,27.28
2022-08-11T13:11:12.636Z,27.36
2022-08-11T13:12:12.906Z,27.47
2022-08-11T13:13:54.907Z,27.58
2022-08-11T13:14:15.266Z,27.46
2022-08-11T13:15:13.726Z,27.42
2022-08-11T13:16:14.050Z,27.28
2022-08-11T13:17:14.339Z,27.20
2022-08-11T13:18:14.616Z,27.28
2022-08-11T13:19:14.936Z,27.26
2022-08-11T13:20:15.229Z,27.17
2022-08-11T13:21:20.716Z,26.92
2022-08-11T13:22:16.818Z,26.96
2022-08-11T13:23:16.039Z,27.10
2022-08-11T13:24:16.363Z,27.24
2022-08-11T13:25:16.661Z,27.38
2022-08-11T13:26:16.980Z,27.54
2022-08-11T13:27:17.263Z,27.58
2022-08-11T13:28:17.547Z,27.54
2022-08-11T13:29:17.892Z,27.43
2022-08-11T13:30:18.184Z,27.33
2022-08-11T13:31:18.467Z,27.19
2022-08-11T13:32:18.762Z,27.09
2022-08-11T13:33:19.040Z,27.17
2022-08-11T13:34:19.851Z,27.14
2022-08-11T13:35:19.602Z,27.24
2022-08-11T13:36:19.890Z,27.42
2022-08-11T13:37:20.164Z,27.53
2022-08-11T13:38:21.494Z,27.61
2022-08-11T13:39:20.809Z,27.67
2022-08-11T13:40:33.315Z,27.67
2022-08-11T13:41:22.350Z,27.70
2022-08-11T13:42:21.591Z,27.77
2022-08-11T13:43:21.874Z,27.82
2022-08-11T13:44:25.888Z,27.86
2022-08-11T13:45:22.463Z,27.98
2022-08-11T13:46:22.754Z,28.11
2022-08-11T13:47:22.967Z,28.19
2022-08-11T13:48:23.306Z,28.22
2022-08-11T13:49:23.599Z,28.13
2022-08-11T13:50:23.869Z,28.04
2022-08-11T13:51:24.161Z,28.13
2022-08-11T13:52:25.464Z,28.22
2022-08-11T13:53:24.692Z,28.31
2022-08-11T13:54:24.981Z,28.44
2022-08-11T13:55:51.066Z,28.50
2022-08-11T13:56:26.551Z,28.56
2022-08-11T13:58:08.621Z,28.65
2022-08-11T13:58:40.185Z,28.70
2022-08-11T13:59:31.153Z,28.75
2022-08-11T14:00:28.455Z,28.78
2022-08-11T14:02:22.364Z,28.68
2022-08-11T14:02:30.219Z,28.68
2022-08-11T14:03:27.547Z,28.73
2022-08-11T14:04:32.277Z,28.78
2022-08-11T14:05:28.150Z,28.82
2022-08-11T14:06:28.427Z,28.87
2022-08-11T14:07:28.755Z,28.95
2022-08-11T14:08:37.670Z,28.96
2022-08-11T14:09:30.324Z,29.03
2022-08-11T14:10:29.667Z,29.10
2022-08-11T14:12:23.828Z,29.06
2022-08-11T14:12:31.299Z,28.95
2022-08-11T14:13:42.343Z,28.85
2022-08-11T14:14:31.825Z,28.87
2022-08-11T14:15:31.060Z,28.87
2022-08-11T14:16:31.342Z,28.69
2022-08-11T14:17:47.831Z,28.54
2022-08-11T14:18:32.983Z,28.35
2022-08-11T14:19:32.254Z,28.31
2022-08-11T14:20:39.335Z,28.36
2022-08-11T14:21:33.818Z,28.41
2022-08-11T14:22:33.205Z,28.48
2022-08-11T14:23:33.528Z,28.51
2022-08-11T14:24:33.956Z,28.56
2022-08-11T14:26:01.112Z,28.53
2022-08-11T14:26:35.423Z,28.50
2022-08-11T14:28:34.144Z,28.54
2022-08-11T14:28:41.500Z,28.53
2022-08-11T14:29:48.827Z,28.56
2022-08-11T14:30:36.651Z,28.58
2022-08-11T14:31:36.003Z,28.62
2022-08-11T14:32:53.142Z,28.63
2022-08-11T14:33:58.355Z,28.69
2022-08-11T14:34:37.957Z,28.80
2022-08-11T14:35:37.181Z,28.81
2022-08-11T14:36:38.463Z,28.85
2022-08-11T14:37:37.744Z,28.85
2022-08-11T14:38:38.032Z,28.90
2022-08-11T14:39:38.415Z,28.93
2022-08-11T14:40:38.621Z,28.93
2022-08-11T14:42:11.519Z,28.91
2022-08-11T14:42:40.460Z,28.90
2022-08-11T14:44:04.731Z,28.91
2022-08-11T14:44:40.836Z,29.01
2022-08-11T14:45:54.143Z,29.07
2022-08-11T14:46:41.348Z,29.15
2022-08-11T14:47:40.800Z,29.28
2022-08-11T14:48:40.826Z,29.35
2022-08-11T14:49:57.244Z,29.38
2022-08-11T14:50:42.412Z,29.44
2022-08-11T14:51:46.455Z,29.49
2022-08-11T14:52:42.968Z,29.52
2022-08-11T14:53:58.442Z,29.62
2022-08-11T14:54:43.489Z,29.82
2022-08-11T14:55:42.710Z,30.05
2022-08-11T14:56:43.013Z,30.40
2022-08-11T14:57:55.447Z,30.78
2022-08-11T14:58:44.647Z,31.30
2022-08-11T14:59:47.609Z,31.92
2022-08-11T15:00:44.330Z,32.62